Time;durP1;ratioP1;P1;durP2;ratioP2;P2;SDS_P1;SDS_P2;PMS_P1;PMS_P2;Temp;Humidity;BMP_temperature;BMP_pressure;BME280_temperature;BME280_humidity;BME280_pressure;Samples;Min_cycle;Max_cycle;Signal;HPM_P1;HPM_P2
2022/03/09 00:00:50;;;;;;;0.50;0.10;;;4.30;99.90;;;;;;4916228;29;20629;-77
2022/03/09 00:03:18;;;;;;;0.50;0.10;;;4.20;99.90;;;;;;4915632;29;20886;-77
2022/03/09 00:05:46;;;;;;;0.50;0.10;;;4.30;99.90;;;;;;4916303;29;20458;-77
2022/03/09 00:08:14;;;;;;;0.50;0.10;;;4.30;99.90;;;;;;4923222;29;20463;-77
2022/03/09 00:10:42;;;;;;;0.50;0.10;;;4.30;99.90;;;;;;4922448;29;20845;-77
2022/03/09 00:13:10;;;;;;;0.50;0.10;;;4.20;99.90;;;;;;4919730;29;20486;-76
2022/03/09 00:15:39;;;;;;;0.50;0.10;;;4.10;99.90;;;;;;4919718;29;20449;-76
2022/03/09 00:18:07;;;;;;;0.50;0.10;;;4.10;99.90;;;;;;4919911;29;20456;-77
2022/03/09 00:20:35;;;;;;;0.50;0.10;;;4.10;99.90;;;;;;4920041;29;20489;-76
2022/03/09 00:23:03;;;;;;;0.50;0.10;;;4.20;99.90;;;;;;4919474;29;20481;-77
2022/03/09 00:25:31;;;;;;;0.50;0.10;;;4.10;99.90;;;;;;4919724;29;21003;-77
2022/03/09 00:27:59;;;;;;;0.50;0.10;;;4.10;99.90;;;;;;4920496;29;20776;-77
2022/03/09 00:30:27;;;;;;;0.50;0.10;;;4.00;99.90;;;;;;4922739;29;20447;-77
2022/03/09 00:32:56;;;;;;;0.50;0.10;;;4.00;99.90;;;;;;4922785;29;21004;-77
2022/03/09 00:35:24;;;;;;;0.50;0.10;;;3.90;99.90;;;;;;4923732;29;20514;-77
2022/03/09 00:37:52;;;;;;;0.50;0.10;;;3.80;99.90;;;;;;4926032;29;20476;-76
2022/03/09 00:40:21;;;;;;;0.50;0.10;;;3.80;99.90;;;;;;4934854;29;20452;-76
2022/03/09 00:42:48;;;;;;;0.50;0.10;;;3.70;99.90;;;;;;4937127;29;20466;-75
2022/03/09 00:45:16;;;;;;;0.50;0.10;;;3.70;99.90;;;;;;4937788;29;20516;-75
2022/03/09 00:47:44;;;;;;;0.50;0.10;;;3.70;99.90;;;;;;4936773;29;20468;-77
2022/03/09 00:50:13;;;;;;;0.50;0.10;;;3.80;99.90;;;;;;4936912;29;20481;-77
2022/03/09 00:52:41;;;;;;;0.50;0.10;;;3.70;99.90;;;;;;4947992;29;20552;-76
2022/03/09 00:55:10;;;;;;;0.50;0.10;;;3.70;99.90;;;;;;4937526;29;20443;-77
2022/03/09 00:57:38;;;;;;;0.50;0.20;;;3.60;99.90;;;;;;4936192;29;20478;-76
2022/03/09 01:00:07;;;;;;;0.50;0.10;;;3.60;99.90;;;;;;4937565;29;20459;-75
2022/03/09 01:02:40;;;;;;;0.50;0.20;;;3.60;99.90;;;;;;4937191;29;20629;-76
2022/03/09 01:05:09;;;;;;;0.50;0.10;;;3.60;99.90;;;;;;4937948;29;20498;-75
2022/03/09 01:07:38;;;;;;;0.50;0.20;;;3.60;99.90;;;;;;4938905;29;20471;-75
2022/03/09 01:10:07;;;;;;;0.50;0.10;;;3.50;99.90;;;;;;4938346;29;20547;-74
2022/03/09 01:12:35;;;;;;;0.50;0.10;;;3.50;99.90;;;;;;4937714;29;20562;-74
2022/03/09 01:15:05;;;;;;;0.50;0.10;;;3.50;99.90;;;;;;4937159;29;20507;-75
2022/03/09 01:17:33;;;;;;;0.50;0.20;;;3.50;99.90;;;;;;4937270;29;20550;-75
2022/03/09 01:20:01;;;;;;;0.50;0.17;;;3.50;99.90;;;;;;4937728;29;20533;-75
2022/03/09 01:22:28;;;;;;;0.50;0.10;;;3.40;99.90;;;;;;4937525;29;20494;-75
2022/03/09 01:24:58;;;;;;;0.50;0.10;;;3.40;99.90;;;;;;4937420;29;20573;-75
2022/03/09 01:27:26;;;;;;;0.50;0.10;;;3.30;99.90;;;;;;4937286;29;20486;-75
2022/03/09 01:29:54;;;;;;;3.20;2.63;;;;;;;;;;4937393;29;20451;-75
2022/03/09 01:32:22;;;;;;;0.50;0.10;;;3.40;99.90;;;;;;4936198;29;20481;-76
2022/03/09 01:34:50;;;;;;;0.50;0.10;;;3.40;99.90;;;;;;4936439;29;20455;-75
2022/03/09 01:37:18;;;;;;;0.50;0.10;;;3.40;99.90;;;;;;4936780;29;20462;-75
2022/03/09 01:39:45;;;;;;;0.50;0.10;;;3.30;99.90;;;;;;4934510;29;20452;-75
2022/03/09 01:42:15;;;;;;;0.50;0.10;;;3.20;99.90;;;;;;4924856;29;20493;-76
2022/03/09 01:44:43;;;;;;;0.50;0.10;;;3.20;99.90;;;;;;4928194;29;20477;-77
2022/03/09 01:47:11;;;;;;;0.50;0.10;;;5.90;99.90;;;;;;4920089;29;20619;-76
2022/03/09 01:49:39;;;;;;;0.53;0.10;;;3.20;99.90;;;;;;4919593;29;20453;-77
2022/03/09 01:52:08;;;;;;;0.50;0.10;;;3.10;99.90;;;;;;4918973;29;20488;-77
2022/03/09 01:54:36;;;;;;;0.50;0.10;;;3.10;99.90;;;;;;4918053;29;20964;-76
2022/03/09 01:57:04;;;;;;;0.50;0.10;;;3.10;99.90;;;;;;4918973;29;20630;-76
2022/03/09 01:59:34;;;;;;;0.50;0.10;;;3.10;99.90;;;;;;4925115;29;20456;-76
2022/03/09 02:02:02;;;;;;;0.50;0.33;;;3.10;99.90;;;;;;4924334;29;20476;-76
2022/03/09 02:04:30;;;;;;;0.50;0.20;;;4.10;99.90;;;;;;4923172;29;20477;-76
2022/03/09 02:06:59;;;;;;;0.50;0.10;;;3.10;99.90;;;;;;4932834;29;20559;-77
2022/03/09 02:09:41;;;;;;;0.50;0.10;;;3.10;99.90;;;;;;4928042;29;20459;-75
2022/03/09 02:12:11;;;;;;;0.60;0.10;;;3.10;99.90;;;;;;4932941;29;20464;-75
2022/03/09 02:14:42;;;;;;;0.50;0.10;;;3.10;99.90;;;;;;4927935;29;20516;-76
2022/03/09 02:17:11;;;;;;;0.50;0.10;;;3.10;99.90;;;;;;4935408;29;20441;-75
2022/03/09 02:19:40;;;;;;;0.50;0.10;;;3.10;99.90;;;;;;4934680;29;20462;-76
2022/03/09 02:22:23;;;;;;;0.50;0.10;;;3.00;99.90;;;;;;4928144;29;20476;-77
2022/03/09 02:24:52;;;;;;;0.50;0.10;;;3.00;99.90;;;;;;4918188;29;21016;-77
2022/03/09 02:27:21;;;;;;;0.50;0.10;;;3.00;99.90;;;;;;4918836;29;20800;-76
2022/03/09 02:29:49;;;;;;;0.50;0.10;;;3.00;99.90;;;;;;4919569;29;20456;-76
2022/03/09 02:32:17;;;;;;;0.50;0.10;;;2.90;99.90;;;;;;4919461;29;20469;-76
2022/03/09 02:34:45;;;;;;;0.50;0.10;;;2.90;99.90;;;;;;4930141;29;20539;-76
2022/03/09 02:37:13;;;;;;;0.50;0.10;;;2.90;99.90;;;;;;4929236;29;20461;-76
2022/03/09 02:39:42;;;;;;;0.50;0.20;;;2.90;99.90;;;;;;4927175;29;20461;-75
2022/03/09 02:42:11;;;;;;;0.50;0.10;;;2.80;99.90;;;;;;4934772;29;20489;-75
2022/03/09 02:44:39;;;;;;;0.50;0.20;;;2.80;99.90;;;;;;4935681;29;20457;-76
2022/03/09 02:47:10;;;;;;;0.50;0.10;;;2.70;99.90;;;;;;4935415;29;20448;-75
2022/03/09 02:49:38;;;;;;;0.50;0.10;;;2.70;99.90;;;;;;4934823;29;20469;-75
2022/03/09 02:52:06;;;;;;;0.80;0.60;;;2.60;99.90;;;;;;4943745;29;21300;-76
2022/03/09 02:54:35;;;;;;;0.50;0.10;;;2.60;99.90;;;;;;4928843;29;20452;-76
2022/03/09 02:57:04;;;;;;;0.50;0.10;;;2.60;99.90;;;;;;4939111;29;20476;-76
2022/03/09 02:59:32;;;;;;;0.50;0.10;;;2.60;99.90;;;;;;4938203;29;20982;-75
2022/03/09 03:02:00;;;;;;;0.50;0.10;;;2.40;99.90;;;;;;4938741;29;20468;-76
2022/03/09 03:04:28;;;;;;;0.50;0.10;;;2.40;99.90;;;;;;4922522;29;20452;-76
2022/03/09 03:06:56;;;;;;;0.50;0.10;;;2.40;99.90;;;;;;4919229;29;20492;-76
2022/03/09 03:09:24;;;;;;;0.50;0.10;;;2.30;99.90;;;;;;4917488;29;20448;-75
2022/03/09 03:11:52;;;;;;;0.50;0.10;;;2.40;99.90;;;;;;4918011;29;20480;-76
2022/03/09 03:14:21;;;;;;;0.50;0.10;;;2.50;99.90;;;;;;4921520;29;20457;-74
2022/03/09 03:16:49;;;;;;;0.50;0.20;;;2.40;99.90;;;;;;4929862;29;20878;-76
2022/03/09 03:19:17;;;;;;;0.50;0.10;;;;;;;;;;4936171;29;20471;-76
2022/03/09 03:21:48;;;;;;;0.50;0.10;;;2.30;99.90;;;;;;4935794;29;20459;-76
2022/03/09 03:24:16;;;;;;;1.03;0.83;;;2.30;99.90;;;;;;4918930;29;20532;-76
2022/03/09 03:26:44;;;;;;;0.50;0.10;;;2.30;99.90;;;;;;4917622;29;20494;-75
2022/03/09 03:29:11;;;;;;;0.50;0.10;;;2.30;99.90;;;;;;4917422;29;20952;-75
2022/03/09 03:31:41;;;;;;;0.50;0.10;;;2.30;99.90;;;;;;4917439;29;20487;-76
2022/03/09 03:34:08;;;;;;;0.50;0.10;;;2.30;99.90;;;;;;4916991;29;20544;-75
2022/03/09 03:36:36;;;;;;;0.50;0.10;;;2.30;99.90;;;;;;4919926;29;20455;-77
2022/03/09 03:39:04;;;;;;;0.50;0.10;;;2.40;99.90;;;;;;4919667;29;20461;-77
2022/03/09 03:41:32;;;;;;;0.50;0.10;;;2.50;99.90;;;;;;4919593;29;20453;-76
2022/03/09 03:44:00;;;;;;;0.50;0.10;;;2.50;99.90;;;;;;4921520;29;20488;-74
2022/03/09 03:46:28;;;;;;;0.50;0.10;;;2.50;99.90;;;;;;4935761;29;20480;-76
2022/03/09 03:48:57;;;;;;;0.50;0.10;;;;;;;;;;4920635;29;20445;-76
2022/03/09 03:51:25;;;;;;;0.50;0.10;;;2.20;99.90;;;;;;4921084;29;20505;-76
2022/03/09 03:53:53;;;;;;;0.50;0.10;;;2.20;99.90;;;;;;4922061;29;20485;-75
2022/03/09 03:56:21;;;;;;;0.50;0.10;;;2.30;99.90;;;;;;4920770;29;20936;-75
2022/03/09 03:58:49;;;;;;;0.50;0.10;;;2.30;99.90;;;;;;4920872;29;20442;-76
2022/03/09 04:01:16;;;;;;;0.50;0.10;;;2.40;99.90;;;;;;4921067;29;20460;-76
2022/03/09 04:03:44;;;;;;;0.50;0.10;;;2.40;99.90;;;;;;4921834;29;20563;-78
2022/03/09 04:06:14;;;;;;;0.50;0.10;;;2.30;99.90;;;;;;4924770;29;20495;-78
2022/03/09 04:08:41;;;;;;;0.50;0.10;;;2.30;99.90;;;;;;4934965;29;20808;-77
2022/03/09 04:11:09;;;;;;;0.50;0.10;;;2.30;99.90;;;;;;4939573;29;20452;-76
2022/03/09 04:13:37;;;;;;;0.50;0.10;;;2.30;99.90;;;;;;4934903;29;20482;-77
2022/03/09 04:16:05;;;;;;;0.50;0.10;;;2.40;99.90;;;;;;4930711;29;20466;-78
2022/03/09 04:18:34;;;;;;;0.50;0.10;;;2.40;99.90;;;;;;4934148;29;20532;-76
2022/03/09 04:21:05;;;;;;;0.50;0.10;;;2.40;99.90;;;;;;4923243;29;20507;-76
2022/03/09 04:23:34;;;;;;;0.77;0.77;;;2.50;99.90;;;;;;4921789;29;20481;-76
2022/03/09 04:26:06;;;;;;;0.50;0.20;;;2.50;99.90;;;;;;4919835;29;20488;-77
2022/03/09 04:28:35;;;;;;;2.10;2.00;;;2.50;99.90;;;;;;4919506;29;20939;-77
2022/03/09 04:31:03;;;;;;;0.50;0.10;;;2.40;99.90;;;;;;4919981;29;20451;-77
2022/03/09 04:33:32;;;;;;;0.50;0.10;;;2.40;99.90;;;;;;4921688;29;20559;-77
2022/03/09 04:35:59;;;;;;;0.50;0.10;;;2.30;99.90;;;;;;4919900;29;20449;-77
2022/03/09 04:38:28;;;;;;;0.50;0.10;;;2.30;99.90;;;;;;4921005;29;20456;-77
2022/03/09 04:40:57;;;;;;;0.50;0.10;;;2.30;99.90;;;;;;4920533;29;20449;-77
2022/03/09 04:43:25;;;;;;;0.50;0.10;;;2.10;99.90;;;;;;4919782;29;21009;-75
2022/03/09 04:45:53;;;;;;;0.50;0.10;;;2.10;99.90;;;;;;4916049;29;20481;-76
2022/03/09 04:48:21;;;;;;;0.50;0.10;;;2.00;99.90;;;;;;4921581;29;20875;-77
2022/03/09 04:50:49;;;;;;;0.50;0.10;;;2.00;99.90;;;;;;4928440;29;20465;-77
2022/03/09 04:53:17;;;;;;;0.50;0.10;;;1.90;99.90;;;;;;4929027;29;20583;-77
2022/03/09 04:55:45;;;;;;;0.50;0.10;;;1.50;99.90;;;;;;4922573;29;20516;-77
2022/03/09 04:58:16;;;;;;;0.50;0.10;;;2.00;99.90;;;;;;4921606;29;20473;-76
2022/03/09 05:00:44;;;;;;;0.50;0.10;;;1.90;99.90;;;;;;4919823;29;20484;-77
2022/03/09 05:03:12;;;;;;;0.50;0.20;;;1.70;99.90;;;;;;4929799;29;20491;-76
2022/03/09 05:05:40;;;;;;;0.60;0.33;;;1.70;99.90;;;;;;4933179;29;20448;-78
2022/03/09 05:08:09;;;;;;;0.50;0.10;;;1.80;99.90;;;;;;4927468;29;20767;-77
2022/03/09 05:10:37;;;;;;;0.50;0.10;;;1.80;99.90;;;;;;4922307;29;20448;-76
2022/03/09 05:13:05;;;;;;;0.50;0.10;;;1.80;99.90;;;;;;4929585;29;20490;-77
2022/03/09 05:15:35;;;;;;;0.50;0.20;;;1.70;99.90;;;;;;4936164;29;20475;-75
2022/03/09 05:18:03;;;;;;;0.50;0.10;;;1.70;99.90;;;;;;4929162;29;20496;-76
2022/03/09 05:20:31;;;;;;;2.50;2.40;;;1.70;99.90;;;;;;4940567;29;20446;-77
2022/03/09 05:23:00;;;;;;;0.50;0.10;;;1.70;99.90;;;;;;4936853;29;20659;-77
2022/03/09 05:25:28;;;;;;;0.50;0.10;;;2.70;99.90;;;;;;4918844;29;20473;-76
2022/03/09 05:27:56;;;;;;;0.50;0.10;;;1.70;99.90;;;;;;4918496;29;20587;-77
2022/03/09 05:30:23;;;;;;;0.50;0.10;;;1.60;99.90;;;;;;4917063;29;20449;-76
2022/03/09 05:32:53;;;;;;;0.50;0.10;;;1.40;99.90;;;;;;4916609;29;20480;-78
2022/03/09 05:35:20;;;;;;;0.50;0.10;;;1.40;99.90;;;;;;4931788;29;20464;-78
2022/03/09 05:37:48;;;;;;;0.50;0.10;;;1.40;99.90;;;;;;4917958;29;20568;-77
2022/03/09 05:40:16;;;;;;;0.50;0.10;;;1.30;99.90;;;;;;4923121;29;20456;-77
2022/03/09 05:42:45;;;;;;;0.50;0.10;;;1.40;99.90;;;;;;4932196;29;20468;-77
2022/03/09 05:45:19;;;;;;;0.50;0.20;;;1.40;99.90;;;;;;4915252;29;20460;-78
2022/03/09 05:47:53;;;;;;;0.50;0.10;;;1.40;99.90;;;;;;4926411;29;20504;-77
2022/03/09 05:50:21;;;;;;;0.50;0.10;;;1.50;99.90;;;;;;4937088;29;20448;-77
2022/03/09 05:52:50;;;;;;;0.50;0.10;;;1.50;99.90;;;;;;4936350;29;20490;-77
2022/03/09 05:55:18;;;;;;;0.50;0.10;;;1.50;99.90;;;;;;4917810;29;20472;-79
2022/03/09 05:57:47;;;;;;;0.50;0.10;;;1.60;99.90;;;;;;4916531;29;20449;-76
2022/03/09 06:00:15;;;;;;;0.60;0.50;;;1.60;99.90;;;;;;4918137;29;20465;-76
2022/03/09 06:02:44;;;;;;;0.50;0.20;;;1.90;99.90;;;;;;4919935;29;20483;-77
2022/03/09 06:05:20;;;;;;;0.50;0.10;;;1.90;99.90;;;;;;4919658;29;20467;-78
2022/03/09 06:07:49;;;;;;;0.60;0.60;;;2.00;99.90;;;;;;4929042;29;20480;-76
2022/03/09 06:10:17;;;;;;;0.50;0.20;;;2.00;99.90;;;;;;4927857;29;20536;-77
2022/03/09 06:12:46;;;;;;;0.50;0.30;;;2.00;99.90;;;;;;4926091;29;20480;-78
2022/03/09 06:15:14;;;;;;;0.50;0.20;;;2.00;99.90;;;;;;4929727;29;20452;-78
2022/03/09 06:17:46;;;;;;;0.50;0.10;;;2.00;99.90;;;;;;4929062;29;20529;-77
2022/03/09 06:20:16;;;;;;;0.50;0.10;;;1.80;99.90;;;;;;4924430;29;20449;-77
2022/03/09 06:22:47;;;;;;;0.60;0.20;;;1.80;99.90;;;;;;4910733;29;20477;-77
2022/03/09 06:25:16;;;;;;;0.50;0.10;;;1.80;99.90;;;;;;4930209;29;20469;-77
2022/03/09 06:27:45;;;;;;;0.50;0.10;;;1.80;99.90;;;;;;4928417;29;20490;-76
2022/03/09 06:30:14;;;;;;;0.60;0.10;;;1.90;99.90;;;;;;4930588;29;20533;-77
2022/03/09 06:32:44;;;;;;;0.83;0.83;;;2.00;99.90;;;;;;4930516;29;21055;-79
2022/03/09 06:35:15;;;;;;;0.50;0.10;;;2.00;99.90;;;;;;4938045;29;20444;-76
2022/03/09 06:37:43;;;;;;;1.13;1.13;;;2.00;99.90;;;;;;4938213;29;20455;-77
2022/03/09 06:40:13;;;;;;;0.50;0.10;;;2.00;99.90;;;;;;4935693;29;20454;-77
2022/03/09 06:42:41;;;;;;;0.50;0.10;;;2.00;99.90;;;;;;4924267;29;20496;-77
2022/03/09 06:45:09;;;;;;;3.53;3.23;;;2.00;99.90;;;;;;4928508;29;20494;-79
2022/03/09 06:47:38;;;;;;;0.50;0.20;;;2.10;99.90;;;;;;4930921;29;20951;-78
2022/03/09 06:50:09;;;;;;;0.50;0.10;;;2.10;99.90;;;;;;4933286;29;20460;-78
2022/03/09 06:52:37;;;;;;;0.50;0.10;;;2.20;99.90;;;;;;4919180;29;20843;-76
2022/03/09 06:55:07;;;;;;;0.50;0.10;;;2.20;99.90;;;;;;4931266;29;20447;-80
2022/03/09 06:57:37;;;;;;;0.50;0.10;;;2.20;99.90;;;;;;4921815;29;20461;-76
2022/03/09 07:00:07;;;;;;;0.50;0.10;;;2.30;99.90;;;;;;4943844;29;20457;-80
2022/03/09 07:02:35;;;;;;;0.50;0.10;;;2.30;99.90;;;;;;4926548;29;20475;-77
2022/03/09 07:05:03;;;;;;;0.60;0.40;;;2.40;99.90;;;;;;4922885;29;20459;-77
2022/03/09 07:07:32;;;;;;;0.50;0.10;;;2.50;99.90;;;;;;4920347;29;20477;-76
2022/03/09 07:10:00;;;;;;;0.50;0.10;;;2.50;99.90;;;;;;4918636;29;20907;-76
2022/03/09 07:12:28;;;;;;;0.50;0.20;;;2.50;99.90;;;;;;4929410;29;20556;-78
2022/03/09 07:14:58;;;;;;;0.50;0.10;;;2.50;99.90;;;;;;4930138;29;20462;-75
2022/03/09 07:17:25;;;;;;;0.50;0.10;;;2.50;99.90;;;;;;4921479;29;20451;-77
2022/03/09 07:19:54;;;;;;;0.50;0.10;;;2.50;99.90;;;;;;4923482;29;20483;-76
2022/03/09 07:22:22;;;;;;;0.50;0.10;;;2.60;99.90;;;;;;4928748;29;20513;-76
2022/03/09 07:24:50;;;;;;;0.50;0.10;;;2.60;99.90;;;;;;4930729;29;20893;-78
2022/03/09 07:27:18;;;;;;;0.50;0.10;;;2.60;99.90;;;;;;4932279;29;20487;-77
2022/03/09 07:29:47;;;;;;;0.50;0.10;;;2.70;99.90;;;;;;4928291;29;20559;-76
2022/03/09 07:32:16;;;;;;;0.50;0.10;;;2.80;99.90;;;;;;4936513;29;20469;-78
2022/03/09 07:35:05;;;;;;;0.50;0.10;;;2.80;99.90;;;;;;4939490;29;20490;-77
2022/03/09 07:37:33;;;;;;;0.50;0.10;;;2.90;99.90;;;;;;4939542;29;20542;-77
2022/03/09 07:40:00;;;;;;;0.50;0.10;;;2.90;99.90;;;;;;4933538;29;20462;-77
2022/03/09 07:42:28;;;;;;;0.50;0.10;;;3.00;99.90;;;;;;4917250;29;20549;-75
2022/03/09 07:44:56;;;;;;;0.50;0.10;;;3.10;99.90;;;;;;4916059;29;20460;-75
2022/03/09 07:47:25;;;;;;;0.50;0.10;;;3.20;99.90;;;;;;4916034;29;20456;-76
2022/03/09 07:49:54;;;;;;;0.50;0.10;;;3.50;99.90;;;;;;4915887;29;20455;-76
2022/03/09 07:52:21;;;;;;;0.50;0.10;;;3.30;99.90;;;;;;4928655;29;20549;-76
2022/03/09 07:54:50;;;;;;;0.50;0.10;;;;;;;;;;4937842;29;20465;-77
2022/03/09 07:57:19;;;;;;;0.50;0.10;;;3.50;99.90;;;;;;4935121;29;20447;-76
2022/03/09 07:59:47;;;;;;;0.50;0.10;;;3.60;99.90;;;;;;4920618;29;20582;-77
2022/03/09 08:02:14;;;;;;;0.50;0.10;;;3.60;99.90;;;;;;4923513;29;20476;-76
2022/03/09 08:04:44;;;;;;;0.50;0.10;;;3.70;99.90;;;;;;4925718;29;20462;-78
2022/03/09 08:07:12;;;;;;;0.50;0.10;;;3.70;99.90;;;;;;4928858;29;21090;-77
2022/03/09 08:09:40;;;;;;;0.50;0.10;;;3.70;99.90;;;;;;4931947;29;20488;-76
2022/03/09 08:12:11;;;;;;;0.50;0.10;;;3.70;99.90;;;;;;4919292;29;20472;-74
2022/03/09 08:14:39;;;;;;;0.50;0.10;;;3.80;99.90;;;;;;4926911;29;20526;-76
2022/03/09 08:17:07;;;;;;;0.50;0.10;;;3.80;99.90;;;;;;4923671;29;20463;-75
2022/03/09 08:19:35;;;;;;;0.50;0.10;;;3.90;99.90;;;;;;4922190;29;20445;-77
2022/03/09 08:22:05;;;;;;;0.60;0.53;;;4.00;99.90;;;;;;4924815;29;20860;-76
2022/03/09 08:24:33;;;;;;;0.50;0.10;;;4.00;99.90;;;;;;4925767;29;20455;-76
2022/03/09 08:27:21;;;;;;;0.50;0.10;;;4.10;99.90;;;;;;4919353;29;20952;-76
2022/03/09 08:29:50;;;;;;;0.50;0.10;;;4.10;99.90;;;;;;4925435;29;20482;-74
2022/03/09 08:32:19;;;;;;;0.50;0.10;;;4.20;99.90;;;;;;4908660;29;21003;-76
2022/03/09 08:34:47;;;;;;;0.50;0.10;;;4.30;99.90;;;;;;4935253;29;20453;-75
2022/03/09 08:37:17;;;;;;;0.50;0.10;;;4.30;99.90;;;;;;4927454;29;20449;-77
2022/03/09 08:39:47;;;;;;;0.50;0.10;;;4.40;99.90;;;;;;4924489;29;20443;-75
2022/03/09 08:42:16;;;;;;;0.50;0.10;;;4.50;99.90;;;;;;4938849;29;20855;-77
2022/03/09 08:44:44;;;;;;;0.50;0.10;;;4.50;99.90;;;;;;4929294;29;20493;-77
2022/03/09 08:47:12;;;;;;;0.50;0.10;;;4.50;99.90;;;;;;4928836;29;20799;-76
2022/03/09 08:49:40;;;;;;;0.50;0.10;;;4.60;99.90;;;;;;4925281;29;20485;-76
2022/03/09 08:52:09;;;;;;;0.50;0.10;;;4.60;99.90;;;;;;4919534;29;20592;-77
2022/03/09 08:54:40;;;;;;;0.50;0.10;;;4.80;99.90;;;;;;4919284;29;20471;-77
2022/03/09 08:57:08;;;;;;;0.50;0.10;;;4.80;99.90;;;;;;4919133;29;20470;-77
2022/03/09 08:59:36;;;;;;;0.50;0.10;;;4.90;99.90;;;;;;4919856;29;21051;-77
2022/03/09 09:02:04;;;;;;;0.50;0.10;;;5.00;99.90;;;;;;4923083;29;20871;-77
2022/03/09 09:04:33;;;;;;;0.57;0.10;;;5.00;99.90;;;;;;4926362;29;20545;-75
2022/03/09 09:07:01;;;;;;;0.50;0.10;;;5.10;99.90;;;;;;4921197;29;20452;-75
2022/03/09 09:09:29;;;;;;;0.50;0.10;;;5.30;99.90;;;;;;4926590;29;20481;-76
2022/03/09 09:11:59;;;;;;;0.50;0.10;;;5.50;99.90;;;;;;4916807;29;20462;-75
2022/03/09 09:14:28;;;;;;;0.50;0.10;;;5.50;99.90;;;;;;4924898;29;20465;-76
2022/03/09 09:16:56;;;;;;;0.60;0.10;;;5.70;99.90;;;;;;4936760;29;20439;-76
2022/03/09 09:19:25;;;;;;;0.60;0.10;;;;;;;;;;4928615;29;20473;-76
2022/03/09 09:21:53;;;;;;;0.60;0.20;;;5.90;99.90;;;;;;4925533;29;20489;-75
2022/03/09 09:24:21;;;;;;;0.50;0.10;;;5.80;99.90;;;;;;4928281;29;20548;-76
2022/03/09 09:26:48;;;;;;;0.60;0.10;;;5.90;99.90;;;;;;4929429;29;20454;-74
2022/03/09 09:29:29;;;;;;;0.50;0.10;;;5.90;99.90;;;;;;4927634;29;21214;-75
2022/03/09 09:31:57;;;;;;;0.57;0.10;;;6.10;99.90;;;;;;4918077;29;20462;-76
2022/03/09 09:34:26;;;;;;;0.50;0.10;;;6.10;99.90;;;;;;4917053;29;20475;-75
2022/03/09 09:36:54;;;;;;;0.60;0.10;;;6.20;99.90;;;;;;4917584;29;20948;-76
2022/03/09 09:39:22;;;;;;;0.60;0.10;;;6.20;99.90;;;;;;4917260;29;20795;-76
2022/03/09 09:41:52;;;;;;;0.50;0.10;;;6.40;99.90;;;;;;4917723;29;20463;-76
2022/03/09 09:44:22;;;;;;;0.50;0.10;;;6.40;99.90;;;;;;4917413;29;20580;-76
2022/03/09 09:46:53;;;;;;;0.50;0.10;;;6.50;99.90;;;;;;4917487;29;20450;-75
2022/03/09 09:49:24;;;;;;;0.60;0.10;;;6.50;99.90;;;;;;4917001;29;20504;-75
2022/03/09 09:51:53;;;;;;;0.50;0.10;;;6.70;99.90;;;;;;4916926;29;20607;-76
2022/03/09 09:54:24;;;;;;;0.57;0.10;;;7.10;99.90;;;;;;4916730;29;20470;-74
2022/03/09 09:56:55;;;;;;;0.50;0.10;;;6.70;99.90;;;;;;4916782;29;20484;-75
2022/03/09 09:59:23;;;;;;;0.50;0.10;;;6.80;99.90;;;;;;4916151;29;20452;-75
2022/03/09 10:01:55;;;;;;;0.50;0.10;;;6.90;99.90;;;;;;4916641;29;20439;-74
2022/03/09 10:04:23;;;;;;;0.50;0.10;;;7.00;99.90;;;;;;4916569;29;20476;-76
2022/03/09 10:06:51;;;;;;;0.50;0.10;;;7.00;99.90;;;;;;4916800;29;20895;-76
2022/03/09 10:09:19;;;;;;;0.50;0.10;;;7.10;99.90;;;;;;4916751;29;20491;-77
2022/03/09 10:11:50;;;;;;;0.50;0.10;;;7.30;99.90;;;;;;4917208;29;20503;-77
2022/03/09 10:14:39;;;;;;;0.60;0.10;;;7.30;99.90;;;;;;4917150;29;20445;-77
2022/03/09 10:17:09;;;;;;;0.50;0.10;;;7.50;99.90;;;;;;4917755;29;20455;-76
2022/03/09 10:19:40;;;;;;;0.60;0.10;;;7.70;99.90;;;;;;4917198;29;20459;-76
2022/03/09 10:22:29;;;;;;;0.60;0.10;;;7.70;99.90;;;;;;4920182;29;21046;-77
2022/03/09 10:25:18;;;;;;;5.77;1.03;;;7.90;99.90;;;;;;4928678;29;20434;-77
2022/03/09 10:27:48;;;;;;;0.60;0.10;;;7.90;99.90;;;;;;4936644;29;20460;-77
2022/03/09 10:30:18;;;;;;;0.60;0.10;;;8.10;99.90;;;;;;4922256;29;20487;-77
2022/03/09 10:32:53;;;;;;;0.60;0.10;;;8.10;99.90;;;;;;4916825;29;20800;-77
2022/03/09 10:35:38;;;;;;;0.50;0.10;;;8.10;99.90;;;;;;4916860;29;20555;-77
2022/03/09 10:38:07;;;;;;;0.60;0.10;;;8.30;99.90;;;;;;4917248;29;20457;-76
2022/03/09 10:40:42;;;;;;;0.60;0.10;;;8.30;99.90;;;;;;4925984;29;20621;-78
2022/03/09 10:43:12;;;;;;;0.70;0.30;;;8.40;99.90;;;;;;4923224;29;20552;-78
2022/03/09 10:46:01;;;;;;;0.60;0.10;;;8.50;99.90;;;;;;4911292;29;20468;-75
2022/03/09 10:48:53;;;;;;;0.60;0.10;;;8.50;99.90;;;;;;4901629;29;20455;-78
2022/03/09 10:51:33;;;;;;;0.60;0.10;;;8.60;99.90;;;;;;4923754;29;20898;-77
2022/03/09 10:54:03;;;;;;;0.60;0.10;;;8.60;99.90;;;;;;4927514;29;20507;-76
2022/03/09 10:56:32;;;;;;;0.60;0.10;;;8.70;99.90;;;;;;4936806;29;20826;-78
2022/03/09 10:59:10;;;;;;;0.60;0.10;;;8.80;99.90;;;;;;4934957;29;20451;-76
2022/03/09 11:01:39;;;;;;;0.60;0.10;;;8.80;99.90;;;;;;4921164;29;20451;-75
2022/03/09 11:04:16;;;;;;;0.60;0.30;;;8.90;99.90;;;;;;4922992;29;20486;-77
2022/03/09 11:06:48;;;;;;;0.60;0.10;;;8.90;99.90;;;;;;4926115;29;20456;-76
2022/03/09 11:09:17;;;;;;;1.53;1.33;;;5.80;99.90;;;;;;4915393;29;20451;-76
2022/03/09 11:11:47;;;;;;;0.60;0.20;;;9.20;99.90;;;;;;4926893;29;20450;-76
2022/03/09 11:14:16;;;;;;;0.60;0.20;;;9.20;99.90;;;;;;4916822;29;20544;-77
2022/03/09 11:16:45;;;;;;;0.60;0.20;;;9.20;99.90;;;;;;4915858;29;20480;-75
2022/03/09 11:19:17;;;;;;;0.60;0.10;;;9.30;99.90;;;;;;4922531;29;20525;-75
2022/03/09 11:21:45;;;;;;;0.60;0.10;;;9.40;99.90;;;;;;4919715;29;20793;-76
2022/03/09 11:24:15;;;;;;;0.60;0.10;;;9.50;99.90;;;;;;4921848;29;20469;-75
2022/03/09 11:26:46;;;;;;;0.60;0.10;;;9.50;99.90;;;;;;4935288;29;20455;-75
2022/03/09 11:29:14;;;;;;;0.60;0.10;;;9.50;99.90;;;;;;4936076;29;20450;-75
2022/03/09 11:31:45;;;;;;;0.60;0.10;;;9.60;99.90;;;;;;4923662;29;20463;-78
2022/03/09 11:34:35;;;;;;;0.60;0.20;;;9.60;99.90;;;;;;4922784;29;20444;-76
2022/03/09 11:37:05;;;;;;;0.60;0.10;;;9.60;99.90;;;;;;4918529;29;20456;-75
2022/03/09 11:39:34;;;;;;;0.60;0.10;;;9.70;99.90;;;;;;4915393;29;20445;-77
2022/03/09 11:42:31;;;;;;;0.60;0.10;;;9.90;99.90;;;;;;4920263;29;20788;-76
2022/03/09 11:45:31;;;;;;;0.70;0.30;;;9.90;99.90;;;;;;4932178;29;21132;-75
2022/03/09 11:48:05;;;;;;;0.60;0.10;;;9.90;99.90;;;;;;4934176;29;20432;-75
2022/03/09 11:50:42;;;;;;;0.60;0.10;;;10.00;99.90;;;;;;4926762;29;20497;-78
2022/03/09 11:53:10;;;;;;;0.60;0.10;;;10.00;99.90;;;;;;4920877;29;21025;-76
2022/03/09 11:55:41;;;;;;;1.20;1.20;;;10.10;99.90;;;;;;4915092;29;20456;-76
2022/03/09 11:58:11;;;;;;;0.60;0.20;;;10.20;99.90;;;;;;4905853;29;20457;-76
2022/03/09 12:01:01;;;;;;;0.60;0.10;;;10.20;99.90;;;;;;4897309;29;20449;-76
2022/03/09 12:03:40;;;;;;;0.60;0.10;;;10.40;99.90;;;;;;4905986;29;20666;-76
2022/03/09 12:06:41;;;;;;;0.60;0.10;;;10.50;99.90;;;;;;4919631;29;20543;-75
2022/03/09 12:09:10;;;;;;;0.60;0.40;;;10.50;99.90;;;;;;4919680;29;20456;-76
2022/03/09 12:12:08;;;;;;;0.60;0.10;;;10.60;99.90;;;;;;4916672;29;21044;-78
2022/03/09 12:15:01;;;;;;;0.60;0.20;;;10.60;99.90;;;;;;4916235;29;20487;-77
2022/03/09 12:17:30;;;;;;;0.60;0.10;;;10.60;99.90;;;;;;4926654;29;20487;-76
2022/03/09 12:20:17;;;;;;;0.60;0.10;;;10.60;99.90;;;;;;4930319;29;20461;-77
2022/03/09 12:23:05;;;;;;;0.60;0.10;;;10.80;99.90;;;;;;4930445;29;20522;-77
2022/03/09 12:25:38;;;;;;;0.60;0.30;;;10.90;99.90;;;;;;4922419;29;20463;-77
2022/03/09 12:28:46;;;;;;;0.60;0.10;;;11.00;99.90;;;;;;4930562;29;20458;-77
2022/03/09 12:31:20;;;;;;;0.60;0.10;;;11.10;99.90;;;;;;4897565;29;20485;-77
2022/03/09 12:33:54;;;;;;;0.60;0.10;;;11.10;99.90;;;;;;4914114;29;20538;-77
2022/03/09 12:36:25;;;;;;;0.60;0.10;;;11.20;99.90;;;;;;4917710;29;20540;-76
2022/03/09 12:39:01;;;;;;;0.60;0.10;;;11.30;99.90;;;;;;4923053;29;20454;-75
2022/03/09 12:41:31;;;;;;;0.60;0.10;;;11.30;99.90;;;;;;4928975;29;20463;-77
2022/03/09 12:44:03;;;;;;;0.70;0.70;;;11.40;99.90;;;;;;4925545;29;20464;-76
2022/03/09 12:46:33;;;;;;;0.60;0.20;;;11.40;99.90;;;;;;4928502;29;20456;-76
2022/03/09 12:49:05;;;;;;;0.60;0.10;;;11.50;99.90;;;;;;4929396;29;20524;-75
2022/03/09 12:51:33;;;;;;;0.60;0.10;;;11.50;99.90;;;;;;4931289;29;20525;-76
2022/03/09 12:54:29;;;;;;;0.60;0.10;;;11.70;99.90;;;;;;4910510;29;20488;-76
2022/03/09 12:56:58;;;;;;;0.60;0.10;;;11.70;99.90;;;;;;4926662;29;20448;-76
2022/03/09 12:59:26;;;;;;;0.60;0.10;;;11.80;99.90;;;;;;4937129;29;20558;-76
2022/03/09 13:01:54;;;;;;;0.60;0.10;;;11.90;99.90;;;;;;4934275;29;20525;-76
2022/03/09 13:04:23;;;;;;;0.60;0.30;;;11.90;99.90;;;;;;4918280;29;20449;-75
2022/03/09 13:06:52;;;;;;;0.60;0.10;;;11.90;99.90;;;;;;4918828;29;20453;-76
2022/03/09 13:09:22;;;;;;;1.53;1.03;;;11.90;99.90;;;;;;4918606;29;20939;-77
2022/03/09 13:11:52;;;;;;;0.60;0.10;;;12.00;99.90;;;;;;4918666;29;20499;-75
2022/03/09 13:14:21;;;;;;;0.60;0.10;;;12.00;99.90;;;;;;4900346;29;20890;-79